»·PEaware :: SKY171 KHLN-KLVM

SKY171 :: KHLN-KLVM

FLIGHT INFORMATION

Flight Status: Arrived
Operator:
Sky High Charters
More flights by this operator :: More flights under this callsign
Pilot: Tim M. (868)
Aircraft: BEECH AIRCRAFT BARON
(BE58)
More flights by this aircraft type
Origin: KHLN Helena Regl
United States
Destination: KLVM Mission
United States
More flights between these airports :: More routes between these airports
Route: +STAKK4 CONNS V2 NUKUW
File this flight plan on PilotEdge
Remarks: +CW / SKY-7, leg 1
Altitude:
(Current/Filed)
11,000ft
Speed:
(Current/Filed)
187kts
Departed: 13-Dec-19 05:38 PM
Arrived: 13-Dec-19 06:25 PM
Distance/Time
Traveled:
84nm/0:47
Distance/Time
To Go:
Arrived

Flight Plot

Page will automatically refresh every two minutes.

Flight plan parsing failed; only flown route is shown


Map Options




Map Legend


Flown Route
Filed Route
Departure Airport
Arrival Airport
Navaid (VOR, NDB)
Fix

Horizontal Profiles

Position Reports

Time Latitude Longitude Heading Altitude Ground
Speed
13-Dec-19 17:13 46.602871 -111.994935 269 3845ft 0kts
13-Dec-19 17:14 46.602871 -111.994935 269 3845ft 0kts
13-Dec-19 17:15 46.602871 -111.994935 269 3845ft 0kts
13-Dec-19 17:16 46.602871 -111.994935 269 3845ft 0kts
13-Dec-19 17:17 46.602871 -111.994935 269 3845ft 0kts
13-Dec-19 17:18 46.602871 -111.994935 269 3845ft 0kts
13-Dec-19 17:19 46.602871 -111.994935 269 3845ft 0kts
13-Dec-19 17:20 46.602871 -111.994935 269 3845ft 0kts
13-Dec-19 17:21 46.602871 -111.994935 269 3845ft 0kts
13-Dec-19 17:22 46.602871 -111.994935 269 3845ft 0kts
13-Dec-19 17:23 46.602871 -111.994935 269 3845ft 0kts
13-Dec-19 17:24 46.602871 -111.994936 269 3845ft 0kts
13-Dec-19 17:25 46.602935 -111.995079 336 3845ft 4kts
13-Dec-19 17:26 46.603305 -111.991270 87 3845ft 7kts
13-Dec-19 17:27 46.603459 -111.986093 87 3845ft 13kts
13-Dec-19 17:28 46.603651 -111.979695 87 3845ft 16kts
13-Dec-19 17:29 46.603087 -111.972079 97 3845ft 20kts
13-Dec-19 17:30 46.601909 -111.964244 124 3845ft 4kts
13-Dec-19 17:31 46.601859 -111.964083 93 3845ft 0kts
13-Dec-19 17:32 46.601859 -111.964083 93 3845ft 0kts
13-Dec-19 17:33 46.601859 -111.964083 93 3845ft 0kts
13-Dec-19 17:34 46.601859 -111.964083 93 3845ft 0kts
13-Dec-19 17:35 46.601859 -111.964083 93 3845ft 0kts
13-Dec-19 17:36 46.602176 -111.963239 25 3845ft 5kts
13-Dec-19 17:37 46.605769 -111.980877 284 3932ft 108kts
13-Dec-19 17:38 46.615986 -112.019652 341 4815ft 105kts
13-Dec-19 17:39 46.623109 -111.989229 125 5486ft 130kts
13-Dec-19 17:40 46.604399 -111.945344 106 6772ft 128kts
13-Dec-19 17:41 46.597820 -111.890794 103 7765ft 149kts
13-Dec-19 17:42 46.589102 -111.831129 104 8817ft 144kts
13-Dec-19 17:43 46.579707 -111.767822 103 9017ft 176kts
13-Dec-19 17:44 46.568650 -111.693114 103 9013ft 198kts
13-Dec-19 17:45 46.553655 -111.614724 130 9009ft 200kts
13-Dec-19 17:46 46.505543 -111.601217 192 9007ft 186kts
13-Dec-19 17:47 46.464056 -111.558068 124 9010ft 202kts
13-Dec-19 17:48 46.435775 -111.487098 124 9009ft 204kts
13-Dec-19 17:49 46.403826 -111.419366 124 9012ft 204kts
13-Dec-19 17:50 46.377602 -111.355828 121 10121ft 159kts
13-Dec-19 17:51 46.357602 -111.306086 121 10995ft 143kts
13-Dec-19 17:52 46.334405 -111.247196 120 11016ft 186kts
13-Dec-19 17:53 46.307852 -111.179424 120 11010ft 197kts
13-Dec-19 17:54 46.280644 -111.110019 120 11008ft 195kts
13-Dec-19 17:55 46.246890 -111.051769 150 11004ft 188kts
13-Dec-19 17:56 46.203365 -111.008167 149 11003ft 191kts
13-Dec-19 17:57 46.160535 -110.960642 145 10997ft 196kts
13-Dec-19 17:58 46.118449 -110.912525 145 10987ft 201kts
13-Dec-19 17:59 46.074237 -110.862110 145 10976ft 205kts
13-Dec-19 18:01 46.028934 -110.810592 145 10976ft 208kts
13-Dec-19 18:02 45.983010 -110.758425 145 10976ft 211kts
13-Dec-19 18:03 45.936489 -110.705756 145 10976ft 213kts
13-Dec-19 18:04 45.890346 -110.653621 145 10973ft 213kts
13-Dec-19 18:05 45.843740 -110.601044 145 10973ft 213kts
13-Dec-19 18:06 45.796754 -110.548188 145 10894ft 218kts
13-Dec-19 18:07 45.747688 -110.493080 145 10425ft 228kts
13-Dec-19 18:08 45.719520 -110.414745 91 9943ft 233kts
13-Dec-19 18:09 45.741000 -110.331957 56 9449ft 220kts
13-Dec-19 18:10 45.768137 -110.254583 58 8637ft 213kts
13-Dec-19 18:11 45.793355 -110.181950 57 8570ft 199kts
13-Dec-19 18:12 45.820480 -110.113453 52 8464ft 203kts
13-Dec-19 18:13 45.846958 -110.038427 85 7976ft 212kts
13-Dec-19 18:14 45.816408 -109.982866 186 7993ft 170kts
13-Dec-19 18:15 45.793466 -110.019847 275 7995ft 135kts
13-Dec-19 18:16 45.796470 -110.074047 273 7988ft 137kts
13-Dec-19 18:17 45.799265 -110.128510 273 7984ft 137kts
13-Dec-19 18:18 45.794359 -110.181709 241 7916ft 147kts
13-Dec-19 18:19 45.775379 -110.232753 247 7527ft 136kts
13-Dec-19 18:19 45.761683 -110.271914 247 7148ft 131kts
13-Dec-19 18:21 45.741932 -110.328312 245 6338ft 141kts
13-Dec-19 18:22 45.725945 -110.373675 245 5629ft 90kts
13-Dec-19 18:22 45.715740 -110.402763 245 5203ft 96kts
13-Dec-19 18:23 45.703958 -110.433742 237 4690ft 76kts
13-Dec-19 18:25 45.695504 -110.451713 320 4638ft 13kts
13-Dec-19 18:25 45.696809 -110.452613 232 4638ft 0kts
13-Dec-19 18:26 45.696809 -110.452613 232 4638ft 0kts
13-Dec-19 18:27 45.696809 -110.452613 232 4638ft 0kts
13-Dec-19 18:28 45.696809 -110.452613 232 4638ft 0kts

Navigation Log

Ident Type
Flight plan parsing failed, navigation log unavailable